Time;durP1;ratioP1;P1;durP2;ratioP2;P2;SDS_P1;SDS_P2;PMS_P1;PMS_P2;Temp;Humidity;BMP_temperature;BMP_pressure;BME280_temperature;BME280_humidity;BME280_pressure;Samples;Min_cycle;Max_cycle;Signal;HPM_P1;HPM_P2
2022/10/08 00:00:26;;;;;;;1.33;1.33;;;;;;;;;;4896324;28;20225;-69
2022/10/08 00:02:55;;;;;;;1.37;1.37;;;;;;;;;;4903256;28;20221;-68
2022/10/08 00:05:21;;;;;;;1.20;1.20;;;;;;;;;;4916029;28;20272;-68
2022/10/08 00:07:46;;;;;;;1.40;1.40;;;;;;;;;;4897749;29;20646;-68
2022/10/08 00:10:12;;;;;;;1.23;1.23;;;;;;;;;;4895380;29;20276;-68
2022/10/08 00:12:38;;;;;;;1.20;1.20;;;;;;;;;;4898392;29;20244;-68
2022/10/08 00:15:04;;;;;;;1.40;1.40;;;;;;;;;;4889641;29;20226;-68
2022/10/08 00:17:30;;;;;;;1.33;1.33;;;;;;;;;;4899443;28;20224;-68
2022/10/08 00:19:56;;;;;;;1.40;1.40;;;;;;;;;;4886254;28;20227;-68
2022/10/08 00:22:23;;;;;;;1.40;1.40;;;;;;;;;;4896493;28;20232;-68
2022/10/08 00:24:52;;;;;;;1.27;1.27;;;;;;;;;;4904953;28;20606;-68
2022/10/08 00:27:19;;;;;;;1.50;1.50;;;;;;;;;;4905593;29;20271;-68
2022/10/08 00:29:45;;;;;;;1.20;1.20;;;;;;;;;;4907064;28;20236;-69
2022/10/08 00:32:11;;;;;;;1.30;1.30;;;;;;;;;;4904517;28;20263;-68
2022/10/08 00:34:38;;;;;;;1.40;1.40;;;;;;;;;;4895156;28;20316;-68
2022/10/08 00:37:04;;;;;;;1.20;1.20;;;;;;;;;;4889403;29;20580;-69
2022/10/08 00:39:30;;;;;;;1.40;1.40;;;;;;;;;;4885029;28;20272;-68
2022/10/08 00:41:56;;;;;;;1.30;1.30;;;;;;;;;;4884325;28;20232;-68
2022/10/08 00:44:41;;;;;;;1.30;1.30;;;;;;;;;;4889112;28;20263;-68
2022/10/08 00:47:30;;;;;;;1.30;1.30;;;;;;;;;;4884947;28;21710;-68
2022/10/08 00:49:57;;;;;;;1.10;1.10;;;;;;;;;;4892740;28;20250;-68
2022/10/08 00:52:23;;;;;;;1.53;1.53;;;;;;;;;;4892083;29;20236;-68
2022/10/08 00:54:50;;;;;;;1.20;1.20;;;;;;;;;;4902172;28;20245;-68
2022/10/08 00:57:17;;;;;;;1.10;1.10;;;;;;;;;;4888178;29;20257;-68
2022/10/08 00:59:43;;;;;;;1.30;1.30;;;;;;;;;;4905762;28;20912;-68
2022/10/08 01:02:09;;;;;;;1.40;1.40;;;;;;;;;;4899760;28;20297;-67
2022/10/08 01:04:35;;;;;;;1.33;1.33;;;;;;;;;;4912390;29;20233;-66
2022/10/08 01:07:09;;;;;;;1.33;1.33;;;;;;;;;;4894448;29;20245;-65
2022/10/08 01:09:38;;;;;;;1.53;1.53;;;;;;;;;;4894447;29;20311;-67
2022/10/08 01:12:07;;;;;;;1.20;1.20;;;;;;;;;;4893397;29;20697;-66
2022/10/08 01:14:51;;;;;;;1.63;1.63;;;;;;;;;;4911282;29;20301;-67
2022/10/08 01:17:29;;;;;;;1.50;1.50;;;;;;;;;;4911569;29;20304;-66
2022/10/08 01:19:58;;;;;;;1.50;1.50;;;;;;;;;;4888545;29;20260;-66
2022/10/08 01:22:24;;;;;;;1.63;1.63;;;;;;;;;;4910588;29;20244;-66
2022/10/08 01:27:38;;;;;;;1.40;1.40;;;;;;;;;;4910819;29;20324;-65
2022/10/08 01:30:05;;;;;;;1.50;1.50;;;;;;;;;;4889938;29;20239;-66
2022/10/08 01:32:36;;;;;;;1.40;1.40;;;;;;;;;;4893175;29;20257;-66
2022/10/08 01:35:02;;;;;;;1.40;1.40;;;;;;;;;;4898582;29;20220;-66
2022/10/08 01:37:34;;;;;;;1.30;1.30;;;;;;;;;;4902513;29;20666;-67
2022/10/08 01:40:00;;;;;;;1.40;1.40;;;;;;;;;;4910323;29;20300;-65
2022/10/08 01:42:26;;;;;;;1.27;1.27;;;;;;;;;;4876192;29;20205;-66
2022/10/08 01:44:57;;;;;;;1.53;1.53;;;;;;;;;;4889687;29;20224;-65
2022/10/08 01:47:26;;;;;;;1.50;1.50;;;;;;;;;;4892203;29;20204;-66
2022/10/08 01:49:55;;;;;;;1.50;1.50;;;;;;;;;;4912126;29;20212;-66
2022/10/08 01:52:24;;;;;;;1.40;1.40;;;;;;;;;;4894216;29;20225;-66
2022/10/08 01:54:50;;;;;;;1.30;1.30;;;;;;;;;;4905447;28;20191;-66
2022/10/08 01:57:15;;;;;;;1.60;1.60;;;;;;;;;;4899436;28;20224;-66
2022/10/08 01:59:46;;;;;;;1.20;1.20;;;;;;;;;;4922797;28;20236;-66
2022/10/08 02:02:22;;;;;;;1.40;1.40;;;;;;;;;;4891867;29;20209;-67
2022/10/08 02:04:50;;;;;;;1.37;1.37;;;;;;;;;;4896264;29;20235;-67
2022/10/08 02:07:17;;;;;;;1.40;1.40;;;;;;;;;;4911499;29;20247;-65
2022/10/08 02:09:44;;;;;;;1.40;1.40;;;;;;;;;;4915534;28;20312;-66
2022/10/08 02:12:10;;;;;;;1.20;1.20;;;;;;;;;;4896303;29;20229;-67
2022/10/08 02:14:37;;;;;;;1.20;1.20;;;;;;;;;;4910742;29;20593;-65
2022/10/08 02:17:06;;;;;;;1.27;1.27;;;;;;;;;;4907056;29;20213;-65
2022/10/08 02:19:39;;;;;;;1.13;1.13;;;;;;;;;;4905120;29;20655;-67
2022/10/08 02:22:06;;;;;;;1.30;1.30;;;;;;;;;;4910776;29;20205;-66
2022/10/08 02:24:37;;;;;;;1.33;1.33;;;;;;;;;;4912021;29;20218;-67
2022/10/08 02:27:04;;;;;;;1.10;1.10;;;;;;;;;;4909037;29;20843;-66
2022/10/08 02:29:32;;;;;;;1.10;1.10;;;;;;;;;;4890050;29;20225;-66
2022/10/08 02:32:00;;;;;;;1.30;1.30;;;;;;;;;;4906175;29;20244;-66
2022/10/08 02:34:28;;;;;;;1.40;1.40;;;;;;;;;;4915083;29;20192;-66
2022/10/08 02:37:00;;;;;;;1.33;1.33;;;;;;;;;;4910523;29;20196;-67
2022/10/08 02:39:26;;;;;;;1.30;1.30;;;;;;;;;;4912561;29;20324;-66
2022/10/08 02:41:53;;;;;;;1.20;1.20;;;;;;;;;;4871530;29;20627;-66
2022/10/08 02:44:42;;;;;;;1.30;1.30;;;;;;;;;;4911438;28;20276;-65
2022/10/08 02:47:10;;;;;;;1.40;1.40;;;;;;;;;;4894803;28;20345;-65
2022/10/08 02:49:37;;;;;;;1.20;1.20;;;;;;;;;;4919081;28;20225;-65
2022/10/08 02:52:03;;;;;;;1.30;1.30;;;;;;;;;;4892335;28;20338;-66
2022/10/08 02:54:29;;;;;;;1.33;1.33;;;;;;;;;;4916587;28;20316;-65
2022/10/08 02:57:04;;;;;;;1.20;1.20;;;;;;;;;;4894830;29;21858;-65
2022/10/08 02:59:32;;;;;;;1.10;1.10;;;;;;;;;;4905187;28;21389;-67
2022/10/08 03:01:58;;;;;;;1.30;1.30;;;;;;;;;;4906234;29;20284;-65
2022/10/08 03:04:28;;;;;;;1.30;1.30;;;;;;;;;;4892051;28;20227;-66
2022/10/08 03:06:54;;;;;;;1.20;1.20;;;;;;;;;;4892381;29;20291;-65
2022/10/08 03:09:20;;;;;;;1.20;1.20;;;;;;;;;;4910503;28;20217;-66
2022/10/08 03:11:46;;;;;;;1.30;1.30;;;;;;;;;;4905739;28;20232;-65
2022/10/08 03:14:13;;;;;;;1.40;1.40;;;;;;;;;;4885410;28;20236;-66
2022/10/08 03:16:39;;;;;;;1.30;1.30;;;;;;;;;;4912238;29;20235;-66
2022/10/08 03:19:06;;;;;;;1.20;1.20;;;;;;;;;;4902201;28;20233;-67
2022/10/08 03:21:32;;;;;;;1.20;1.20;;;;;;;;;;4913961;28;20232;-66
2022/10/08 03:23:58;;;;;;;1.20;1.20;;;;;;;;;;4903072;28;20675;-67
2022/10/08 03:26:24;;;;;;;1.40;1.40;;;;;;;;;;4895309;29;20744;-65
2022/10/08 03:28:53;;;;;;;1.10;1.10;;;;;;;;;;4914592;28;20264;-66
2022/10/08 03:31:19;;;;;;;1.27;1.27;;;;;;;;;;4908708;28;20240;-66
2022/10/08 03:33:49;;;;;;;1.30;1.30;;;;;;;;;;4915355;29;20589;-66
2022/10/08 03:36:15;;;;;;;1.30;1.30;;;;;;;;;;4915378;28;20314;-66
2022/10/08 03:38:41;;;;;;;1.10;1.10;;;;;;;;;;4903743;28;21480;-67
2022/10/08 03:41:08;;;;;;;1.40;1.40;;;;;;;;;;4908334;28;20314;-66
2022/10/08 03:43:34;;;;;;;1.30;1.30;;;;;;;;;;4897729;29;20697;-66
2022/10/08 03:46:00;;;;;;;1.30;1.30;;;;;;;;;;4888607;28;20215;-66
2022/10/08 03:48:26;;;;;;;1.10;1.10;;;;;;;;;;4897322;28;20255;-65
2022/10/08 03:50:52;;;;;;;1.10;1.10;;;;;;;;;;4914357;28;20236;-66
2022/10/08 03:53:18;;;;;;;1.23;1.23;;;;;;;;;;4904122;29;20244;-66
2022/10/08 03:55:44;;;;;;;1.20;1.20;;;;;;;;;;4897612;28;20232;-65
2022/10/08 03:58:10;;;;;;;1.10;1.10;;;;;;;;;;4906621;28;20568;-66
2022/10/08 04:00:36;;;;;;;1.20;1.20;;;;;;;;;;4902430;29;20217;-67
2022/10/08 04:03:02;;;;;;;1.30;1.30;;;;;;;;;;4916673;29;20250;-66
2022/10/08 04:05:28;;;;;;;1.30;1.30;;;;;;;;;;4914630;28;20240;-65
2022/10/08 04:07:54;;;;;;;1.30;1.30;;;;;;;;;;4909305;29;20248;-65
2022/10/08 04:10:19;;;;;;;1.30;1.30;;;;;;;;;;4912156;29;20229;-67
2022/10/08 04:12:45;;;;;;;1.40;1.40;;;;;;;;;;4909042;29;20237;-67
2022/10/08 04:15:11;;;;;;;1.30;1.30;;;;;;;;;;4911733;28;20239;-67
2022/10/08 04:17:37;;;;;;;1.20;1.20;;;;;;;;;;4915596;28;20228;-66
2022/10/08 04:20:03;;;;;;;1.50;1.50;;;;;;;;;;4911709;28;20256;-67
2022/10/08 04:22:29;;;;;;;1.30;1.30;;;;;;;;;;4892495;28;20213;-66
2022/10/08 04:24:55;;;;;;;1.37;1.37;;;;;;;;;;4913867;29;20274;-66
2022/10/08 04:27:21;;;;;;;1.30;1.30;;;;;;;;;;4889952;29;20232;-66
2022/10/08 04:29:47;;;;;;;1.30;1.30;;;;;;;;;;4901272;29;20741;-67
2022/10/08 04:32:13;;;;;;;1.10;1.10;;;;;;;;;;4897225;29;20243;-66
2022/10/08 04:34:39;;;;;;;1.20;1.20;;;;;;;;;;4915776;28;20228;-67
2022/10/08 04:37:05;;;;;;;1.20;1.20;;;;;;;;;;4899213;29;20239;-66
2022/10/08 04:39:31;;;;;;;1.40;1.40;;;;;;;;;;4905058;28;20619;-66
2022/10/08 04:41:57;;;;;;;1.23;1.23;;;;;;;;;;4892797;29;20228;-67
2022/10/08 04:44:22;;;;;;;1.10;1.10;;;;;;;;;;4908960;28;20251;-65
2022/10/08 04:46:48;;;;;;;1.10;1.10;;;;;;;;;;4891752;29;20220;-67
2022/10/08 04:49:14;;;;;;;1.23;1.23;;;;;;;;;;4902232;29;20233;-67
2022/10/08 04:51:40;;;;;;;1.20;1.20;;;;;;;;;;4907304;29;20236;-67
2022/10/08 04:54:06;;;;;;;1.27;1.27;;;;;;;;;;4882114;29;20251;-67
2022/10/08 04:56:34;;;;;;;1.40;1.40;;;;;;;;;;4901419;29;20244;-66
2022/10/08 04:59:00;;;;;;;1.57;1.57;;;;;;;;;;4887180;29;20300;-67
2022/10/08 05:01:26;;;;;;;1.30;1.30;;;;;;;;;;4882539;29;20688;-67
2022/10/08 05:03:52;;;;;;;1.50;1.50;;;;;;;;;;4896745;29;20233;-66
2022/10/08 05:06:19;;;;;;;1.27;1.27;;;;;;;;;;4871552;29;20336;-67
2022/10/08 05:08:45;;;;;;;1.20;1.20;;;;;;;;;;4889013;29;20228;-67
2022/10/08 05:11:11;;;;;;;1.30;1.30;;;;;;;;;;4898700;29;20243;-67
2022/10/08 05:13:37;;;;;;;1.37;1.37;;;;;;;;;;4907063;28;20209;-67
2022/10/08 05:16:07;;;;;;;1.10;1.10;;;;;;;;;;4883867;29;20225;-67
2022/10/08 05:18:33;;;;;;;1.50;1.50;;;;;;;;;;4892551;29;20256;-67
2022/10/08 05:21:06;;;;;;;1.30;1.30;;;;;;;;;;4901913;28;20391;-67
2022/10/08 05:23:32;;;;;;;1.30;1.30;;;;;;;;;;4899354;28;20280;-67
2022/10/08 05:25:58;;;;;;;1.30;1.30;;;;;;;;;;4890485;28;20229;-67
2022/10/08 05:28:24;;;;;;;1.10;1.10;;;;;;;;;;4877979;29;20220;-67
2022/10/08 05:30:49;;;;;;;1.10;1.10;;;;;;;;;;4898330;28;20619;-67
2022/10/08 05:33:15;;;;;;;1.30;1.30;;;;;;;;;;4876338;28;20231;-67
2022/10/08 05:35:41;;;;;;;1.37;1.37;;;;;;;;;;4900211;29;20586;-67
2022/10/08 05:38:07;;;;;;;1.50;1.50;;;;;;;;;;4893741;29;20224;-66
2022/10/08 05:40:33;;;;;;;1.40;1.40;;;;;;;;;;4888188;28;20484;-67
2022/10/08 05:42:59;;;;;;;1.50;1.50;;;;;;;;;;4909693;29;20220;-67
2022/10/08 05:45:25;;;;;;;1.50;1.50;;;;;;;;;;4905371;29;20233;-67
2022/10/08 05:47:51;;;;;;;1.50;1.50;;;;;;;;;;4898743;29;20604;-67
2022/10/08 05:50:17;;;;;;;1.30;1.30;;;;;;;;;;4890689;28;23065;-67
2022/10/08 05:52:43;;;;;;;1.80;1.70;;;;;;;;;;4900032;29;20343;-67
2022/10/08 05:55:09;;;;;;;1.57;1.57;;;;;;;;;;4900094;29;20311;-67
2022/10/08 05:57:35;;;;;;;1.40;1.40;;;;;;;;;;4896873;28;20235;-67
2022/10/08 06:00:01;;;;;;;1.43;1.43;;;;;;;;;;4907687;29;20220;-67
2022/10/08 06:02:26;;;;;;;1.53;1.53;;;;;;;;;;4860771;29;20305;-67
2022/10/08 06:04:52;;;;;;;1.30;1.30;;;;;;;;;;4902149;28;20254;-67
2022/10/08 06:07:18;;;;;;;1.40;1.40;;;;;;;;;;4902749;29;20323;-67
2022/10/08 06:09:44;;;;;;;1.63;1.63;;;;;;;;;;4901737;29;20282;-67
2022/10/08 06:12:11;;;;;;;1.43;1.43;;;;;;;;;;4908760;28;20649;-67
2022/10/08 06:14:37;;;;;;;1.50;1.50;;;;;;;;;;4897471;29;23418;-67
2022/10/08 06:17:03;;;;;;;1.50;1.50;;;;;;;;;;4908114;28;20236;-67
2022/10/08 06:19:29;;;;;;;1.30;1.30;;;;;;;;;;4890119;28;20300;-67
2022/10/08 06:21:55;;;;;;;1.67;1.67;;;;;;;;;;4889720;29;20228;-66
2022/10/08 06:24:21;;;;;;;1.30;1.30;;;;;;;;;;4908038;28;20236;-67
2022/10/08 06:26:47;;;;;;;1.60;1.60;;;;;;;;;;4905029;29;20721;-67
2022/10/08 06:29:14;;;;;;;1.30;1.30;;;;;;;;;;4910015;28;20846;-67
2022/10/08 06:31:40;;;;;;;1.40;1.40;;;;;;;;;;4894419;28;21578;-67
2022/10/08 06:34:06;;;;;;;1.50;1.50;;;;;;;;;;4906634;28;20274;-67
2022/10/08 06:36:32;;;;;;;1.30;1.30;;;;;;;;;;4897568;29;20726;-67
2022/10/08 06:38:58;;;;;;;1.20;1.20;;;;;;;;;;4870691;29;20236;-67
2022/10/08 06:41:24;;;;;;;1.20;1.20;;;;;;;;;;4895910;28;20232;-67
2022/10/08 06:43:50;;;;;;;1.10;1.10;;;;;;;;;;4880898;29;20338;-67
2022/10/08 06:46:17;;;;;;;1.20;1.20;;;;;;;;;;4901503;28;20797;-67
2022/10/08 06:48:43;;;;;;;1.10;1.10;;;;;;;;;;4909920;28;20228;-66
2022/10/08 06:51:13;;;;;;;1.30;1.30;;;;;;;;;;4893720;28;20244;-66
2022/10/08 06:53:38;;;;;;;1.30;1.30;;;;;;;;;;4898391;28;20696;-66
2022/10/08 06:56:05;;;;;;;1.20;1.20;;;;;;;;;;4893580;28;20231;-66
2022/10/08 06:58:31;;;;;;;1.00;1.00;;;;;;;;;;4906076;28;20231;-66
2022/10/08 07:01:07;;;;;;;1.00;1.00;;;;;;;;;;4890814;28;20229;-66
2022/10/08 07:03:33;;;;;;;0.90;0.90;;;;;;;;;;4897309;28;20772;-66
2022/10/08 07:06:02;;;;;;;1.00;1.00;;;;;;;;;;4889172;29;20267;-66
2022/10/08 07:08:29;;;;;;;0.93;0.93;;;;;;;;;;4900447;28;20220;-66
2022/10/08 07:10:55;;;;;;;0.80;0.80;;;;;;;;;;4901056;28;20232;-66
2022/10/08 07:13:21;;;;;;;1.07;1.07;;;;;;;;;;4885220;29;20306;-66
2022/10/08 07:15:47;;;;;;;1.10;1.10;;;;;;;;;;4895181;28;20200;-66
2022/10/08 07:18:13;;;;;;;1.20;1.20;;;;;;;;;;4895432;28;20756;-66
2022/10/08 07:20:39;;;;;;;1.00;1.00;;;;;;;;;;4907505;29;20307;-66
2022/10/08 07:23:05;;;;;;;0.90;0.90;;;;;;;;;;4891469;28;20855;-66
2022/10/08 07:25:31;;;;;;;0.90;0.90;;;;;;;;;;4899190;29;20853;-66
2022/10/08 07:27:57;;;;;;;0.80;0.80;;;;;;;;;;4883756;29;20239;-67
2022/10/08 07:30:23;;;;;;;1.00;1.00;;;;;;;;;;4896473;28;20227;-67
2022/10/08 07:32:52;;;;;;;0.93;0.93;;;;;;;;;;4889935;29;20742;-67
2022/10/08 07:35:18;;;;;;;1.00;1.00;;;;;;;;;;4883407;28;20229;-67
2022/10/08 07:37:44;;;;;;;1.00;1.00;;;;;;;;;;4878156;29;20279;-67
2022/10/08 07:40:10;;;;;;;0.90;0.90;;;;;;;;;;4874507;29;20228;-67
2022/10/08 07:42:36;;;;;;;1.00;1.00;;;;;;;;;;4899516;28;20225;-67
2022/10/08 07:45:02;;;;;;;0.80;0.80;;;;;;;;;;4882518;29;22854;-67
2022/10/08 07:47:28;;;;;;;1.10;1.10;;;;;;;;;;4867713;28;20240;-67
2022/10/08 07:49:54;;;;;;;1.10;1.10;;;;;;;;;;4864825;28;20357;-68
2022/10/08 07:52:20;;;;;;;0.80;0.80;;;;;;;;;;4879625;28;20244;-67
2022/10/08 07:54:46;;;;;;;0.70;0.70;;;;;;;;;;4859756;29;20244;-68
2022/10/08 07:57:12;;;;;;;0.80;0.80;;;;;;;;;;4892494;29;20248;-68
2022/10/08 07:59:38;;;;;;;1.00;1.00;;;;;;;;;;4881156;29;20233;-67
2022/10/08 08:02:04;;;;;;;1.00;1.00;;;;;;;;;;4888182;29;20224;-68
2022/10/08 08:04:30;;;;;;;0.90;0.90;;;;;;;;;;4866422;29;20225;-67
2022/10/08 08:06:56;;;;;;;0.90;0.90;;;;;;;;;;4897514;29;20251;-67
2022/10/08 08:09:23;;;;;;;0.90;0.90;;;;;;;;;;4907877;28;20236;-69
2022/10/08 08:11:49;;;;;;;0.80;0.80;;;;;;;;;;4908658;28;20332;-67
2022/10/08 08:14:15;;;;;;;0.90;0.90;;;;;;;;;;4895116;29;20228;-67
2022/10/08 08:16:41;;;;;;;0.90;0.90;;;;;;;;;;4903559;29;20330;-67
2022/10/08 08:19:07;;;;;;;0.73;0.73;;;;;;;;;;4897293;28;20319;-67
2022/10/08 08:21:34;;;;;;;0.90;0.90;;;;;;;;;;4883610;29;20282;-68
2022/10/08 08:24:07;;;;;;;0.70;0.70;;;;;;;;;;4878122;29;20224;-68
2022/10/08 08:26:34;;;;;;;0.93;0.93;;;;;;;;;;4890066;29;20243;-67
2022/10/08 08:29:01;;;;;;;0.80;0.80;;;;;;;;;;4878461;28;20221;-66
2022/10/08 08:31:31;;;;;;;0.70;0.70;;;;;;;;;;4898968;28;20236;-67
2022/10/08 08:33:58;;;;;;;0.70;0.70;;;;;;;;;;4901843;28;20228;-67
2022/10/08 08:36:25;;;;;;;0.70;0.70;;;;;;;;;;4897411;28;20727;-67
2022/10/08 08:38:51;;;;;;;0.70;0.70;;;;;;;;;;4883583;29;20284;-66
2022/10/08 08:41:21;;;;;;;0.70;0.70;;;;;;;;;;4902364;29;20316;-65
2022/10/08 08:43:47;;;;;;;0.80;0.80;;;;;;;;;;4897045;29;20702;-67
2022/10/08 08:46:13;;;;;;;0.90;0.90;;;;;;;;;;4886710;29;20227;-67
2022/10/08 08:48:39;;;;;;;0.80;0.80;;;;;;;;;;4871311;29;20217;-68
2022/10/08 08:51:05;;;;;;;0.80;0.80;;;;;;;;;;4887370;29;20233;-68
2022/10/08 08:53:31;;;;;;;1.30;1.30;;;;;;;;;;4902657;29;20785;-68
2022/10/08 08:55:58;;;;;;;1.10;1.10;;;;;;;;;;4883885;28;20225;-67
2022/10/08 08:58:36;;;;;;;1.40;1.40;;;;;;;;;;4868100;28;20317;-67
2022/10/08 09:01:05;;;;;;;1.10;1.10;;;;;;;;;;4900761;28;20701;-68
2022/10/08 09:03:41;;;;;;;1.20;1.20;;;;;;;;;;4893037;28;20243;-68
2022/10/08 09:06:11;;;;;;;1.10;1.10;;;;;;;;;;4890226;28;20240;-67
2022/10/08 09:08:42;;;;;;;1.13;1.13;;;;;;;;;;4895825;29;20197;-67
2022/10/08 09:11:18;;;;;;;1.00;1.00;;;;;;;;;;4890873;28;20243;-67
2022/10/08 09:14:04;;;;;;;0.90;0.90;;;;;;;;;;4879356;29;20224;-67
2022/10/08 09:16:32;;;;;;;1.00;1.00;;;;;;;;;;4888821;29;20872;-64
2022/10/08 09:18:58;;;;;;;0.80;0.80;;;;;;;;;;4886811;29;20600;-64
2022/10/08 09:21:24;;;;;;;0.80;0.80;;;;;;;;;;4899635;28;20228;-64
2022/10/08 09:23:49;;;;;;;0.80;0.80;;;;;;;;;;4896685;29;20192;-66
2022/10/08 09:26:19;;;;;;;1.30;1.30;;;;;;;;;;4924021;28;20204;-67
2022/10/08 09:28:46;;;;;;;1.30;1.30;;;;;;;;;;4886123;29;20246;-67
2022/10/08 09:31:15;;;;;;;1.30;1.30;;;;;;;;;;4885453;29;20765;-67
2022/10/08 09:33:41;;;;;;;1.20;1.20;;;;;;;;;;4858767;29;20224;-67
2022/10/08 09:36:07;;;;;;;1.20;1.20;;;;;;;;;;4902808;29;20200;-68
2022/10/08 09:38:35;;;;;;;1.20;1.20;;;;;;;;;;4904464;28;20886;-67
2022/10/08 09:41:05;;;;;;;1.40;1.40;;;;;;;;;;4885985;29;20229;-68
2022/10/08 09:43:32;;;;;;;1.30;1.30;;;;;;;;;;4905377;29;20220;-67
2022/10/08 09:45:58;;;;;;;1.40;1.40;;;;;;;;;;4889191;29;20201;-67
2022/10/08 09:48:25;;;;;;;1.40;1.40;;;;;;;;;;4897286;29;20223;-68
2022/10/08 09:50:58;;;;;;;1.30;1.30;;;;;;;;;;4898691;29;20228;-67
2022/10/08 09:53:26;;;;;;;1.40;1.40;;;;;;;;;;4887449;29;25881;-67
2022/10/08 09:55:53;;;;;;;1.10;1.10;;;;;;;;;;4882680;29;20288;-68
2022/10/08 09:58:19;;;;;;;1.10;1.10;;;;;;;;;;4909672;28;20254;-68
2022/10/08 10:00:45;;;;;;;1.37;1.37;;;;;;;;;;4909302;29;20197;-68
2022/10/08 10:03:16;;;;;;;1.23;1.23;;;;;;;;;;4896887;28;20229;-68
2022/10/08 10:05:42;;;;;;;1.30;1.30;;;;;;;;;;4883443;28;20244;-67
2022/10/08 10:08:16;;;;;;;1.30;1.30;;;;;;;;;;4882243;29;20239;-68
2022/10/08 10:10:43;;;;;;;1.50;1.50;;;;;;;;;;4890768;28;20283;-68
2022/10/08 10:13:09;;;;;;;1.20;1.20;;;;;;;;;;4902342;28;20232;-67
2022/10/08 10:15:40;;;;;;;1.50;1.50;;;;;;;;;;4910473;29;20263;-68
2022/10/08 10:18:11;;;;;;;1.40;1.40;;;;;;;;;;4907952;29;20669;-67
2022/10/08 10:20:41;;;;;;;0.80;0.80;;;;;;;;;;4886946;29;20239;-68
2022/10/08 10:23:11;;;;;;;1.00;1.00;;;;;;;;;;4890817;29;20296;-67
2022/10/08 10:25:51;;;;;;;0.90;0.90;;;;;;;;;;4901638;29;20187;-68
2022/10/08 10:28:22;;;;;;;1.00;1.00;;;;;;;;;;4877389;29;20637;-68
2022/10/08 10:30:54;;;;;;;1.00;1.00;;;;;;;;;;4870445;29;20280;-67
2022/10/08 10:33:22;;;;;;;1.00;1.00;;;;;;;;;;4900902;28;20304;-68
2022/10/08 10:35:50;;;;;;;0.90;0.90;;;;;;;;;;4890736;28;20596;-68
2022/10/08 10:38:19;;;;;;;0.90;0.90;;;;;;;;;;4877506;29;20208;-67
2022/10/08 10:40:49;;;;;;;0.97;0.97;;;;;;;;;;4901272;29;20228;-67
2022/10/08 10:43:25;;;;;;;1.03;1.03;;;;;;;;;;4904797;28;20256;-67
2022/10/08 10:45:53;;;;;;;0.80;0.80;;;;;;;;;;4880306;29;20272;-67
2022/10/08 10:48:19;;;;;;;0.80;0.80;;;;;;;;;;4906929;29;20228;-68
2022/10/08 10:50:52;;;;;;;1.10;1.10;;;;;;;;;;4882799;29;20237;-67
2022/10/08 10:53:21;;;;;;;1.20;1.20;;;;;;;;;;4893842;29;21641;-67
2022/10/08 10:56:07;;;;;;;1.30;1.30;;;;;;;;;;4888296;29;20765;-66
2022/10/08 10:58:36;;;;;;;1.40;1.40;;;;;;;;;;4903136;29;20264;-67
2022/10/08 11:01:06;;;;;;;1.30;1.30;;;;;;;;;;4906474;29;21140;-66
2022/10/08 11:03:46;;;;;;;1.30;1.30;;;;;;;;;;4881535;28;20232;-67
2022/10/08 11:06:15;;;;;;;1.20;1.20;;;;;;;;;;4889391;28;20347;-67
2022/10/08 11:09:08;;;;;;;1.30;1.30;;;;;;;;;;4891947;28;20268;-67
2022/10/08 11:11:41;;;;;;;1.20;1.20;;;;;;;;;;4878186;29;20247;-67
2022/10/08 11:14:36;;;;;;;1.30;1.30;;;;;;;;;;4894198;28;20244;-67
2022/10/08 11:17:05;;;;;;;1.30;1.30;;;;;;;;;;4873349;29;20342;-67
2022/10/08 11:19:50;;;;;;;1.40;1.40;;;;;;;;;;4888742;29;20283;-67
2022/10/08 11:22:24;;;;;;;1.40;1.40;;;;;;;;;;4879645;29;20824;-67
2022/10/08 11:24:52;;;;;;;1.30;1.30;;;;;;;;;;4873315;29;20228;-67
2022/10/08 11:27:18;;;;;;;1.00;1.00;;;;;;;;;;4873671;29;20826;-67
2022/10/08 11:30:05;;;;;;;1.40;1.40;;;;;;;;;;4887996;29;20766;-67
2022/10/08 11:32:31;;;;;;;1.30;1.30;;;;;;;;;;4898481;28;21560;-67
2022/10/08 11:34:57;;;;;;;1.30;1.30;;;;;;;;;;4888281;28;20243;-67
2022/10/08 11:37:32;;;;;;;1.20;1.20;;;;;;;;;;4907366;28;20280;-67
2022/10/08 11:40:10;;;;;;;1.20;1.20;;;;;;;;;;4889693;29;20236;-67
2022/10/08 11:42:41;;;;;;;1.20;1.20;;;;;;;;;;4854617;29;20231;-67
2022/10/08 11:45:14;;;;;;;1.30;1.30;;;;;;;;;;4856631;29;27156;-67
2022/10/08 11:47:44;;;;;;;1.20;1.20;;;;;;;;;;4875332;29;20220;-64
2022/10/08 11:50:24;;;;;;;1.20;1.20;;;;;;;;;;4888039;29;20358;-62
2022/10/08 11:52:51;;;;;;;1.23;1.23;;;;;;;;;;4897053;29;20264;-62
2022/10/08 11:55:21;;;;;;;1.20;1.20;;;;;;;;;;4873615;29;20227;-63
2022/10/08 11:58:22;;;;;;;1.30;1.30;;;;;;;;;;4888282;29;20730;-63
2022/10/08 12:00:48;;;;;;;0.80;0.80;;;;;;;;;;4853379;29;20216;-61
2022/10/08 12:03:47;;;;;;;0.80;0.80;;;;;;;;;;4881222;28;20248;-63
2022/10/08 12:06:15;;;;;;;0.77;0.77;;;;;;;;;;4856298;29;20232;-65
2022/10/08 12:08:53;;;;;;;0.70;0.70;;;;;;;;;;4895859;29;20697;-61
2022/10/08 12:11:31;;;;;;;0.70;0.70;;;;;;;;;;4881444;28;20243;-64
2022/10/08 12:14:18;;;;;;;0.70;0.70;;;;;;;;;;4890501;29;20192;-61
2022/10/08 12:16:47;;;;;;;0.65;0.65;;;;;;;;;;4881700;28;20551;-63
2022/10/08 12:19:35;;;;;;;0.70;0.70;;;;;;;;;;4884566;28;20286;-64
2022/10/08 12:22:01;;;;;;;0.70;0.70;;;;;;;;;;4881819;28;21867;-63
2022/10/08 12:24:36;;;;;;;0.70;0.70;;;;;;;;;;4892869;28;20221;-62
2022/10/08 12:27:18;;;;;;;0.70;0.70;;;;;;;;;;4881587;28;20211;-61
2022/10/08 12:29:53;;;;;;;0.70;0.70;;;;;;;;;;4880295;28;20283;-63
2022/10/08 12:32:20;;;;;;;0.70;0.70;;;;;;;;;;4869202;28;20292;-64
2022/10/08 12:34:46;;;;;;;0.70;0.70;;;;;;;;;;4876557;28;21251;-64
2022/10/08 12:37:16;;;;;;;0.70;0.70;;;;;;;;;;4861108;29;20204;-64
2022/10/08 12:39:43;;;;;;;0.80;0.80;;;;;;;;;;4854885;29;20207;-62
2022/10/08 12:42:26;;;;;;;0.80;0.80;;;;;;;;;;4850151;29;20193;-65
2022/10/08 12:44:55;;;;;;;0.80;0.80;;;;;;;;;;4883446;29;20236;-66
2022/10/08 12:47:48;;;;;;;0.80;0.80;;;;;;;;;;4899244;29;20216;-65
2022/10/08 12:50:36;;;;;;;0.80;0.80;;;;;;;;;;4882290;29;20244;-65
2022/10/08 12:53:02;;;;;;;0.70;0.70;;;;;;;;;;4895828;29;20233;-65
2022/10/08 12:55:28;;;;;;;0.80;0.80;;;;;;;;;;4877237;29;20228;-65
2022/10/08 12:57:54;;;;;;;0.80;0.80;;;;;;;;;;4892380;28;20228;-66
2022/10/08 13:00:21;;;;;;;0.90;0.90;;;;;;;;;;4895980;29;20224;-66
2022/10/08 13:03:00;;;;;;;0.80;0.80;;;;;;;;;;4882327;29;20204;-65
2022/10/08 13:17:49;;;;;;;1.00;1.00;;;;;;;;;;4537105;23;21199;-58
2022/10/08 13:20:17;;;;;;;0.80;0.80;;;;;;;;;;4876239;28;20239;-58
2022/10/08 13:22:44;;;;;;;0.90;0.90;;;;;;;;;;4878619;28;20248;-57
2022/10/08 13:25:29;;;;;;;1.00;1.00;;;;;;;;;;4854285;28;20653;-60
2022/10/08 13:28:29;;;;;;;0.88;0.88;;;;;;;;;;4936471;28;20230;-59
2022/10/08 13:30:56;;;;;;;1.00;1.00;;;;;;;;;;4916026;28;20237;-59
2022/10/08 13:33:23;;;;;;;1.02;1.02;;;;;;;;;;4941869;28;20255;-60
2022/10/08 13:35:56;;;;;;;0.90;0.90;;;;;;;;;;4939222;28;20598;-60
2022/10/08 13:38:23;;;;;;;1.00;1.00;;;;;;;;;;4927353;28;20234;-59
2022/10/08 13:40:50;;;;;;;1.00;1.00;;;;;;;;;;4912966;28;20281;-60
2022/10/08 13:43:16;;;;;;;0.90;0.90;;;;;;;;;;4932052;28;20233;-59
2022/10/08 13:45:42;;;;;;;0.90;0.90;;;;;;;;;;4922017;28;20321;-59
2022/10/08 13:48:11;;;;;;;1.00;1.00;;;;;;;;;;4926601;28;20254;-60
2022/10/08 13:50:47;;;;;;;0.90;0.90;;;;;;;;;;4930757;28;20602;-59
2022/10/08 13:53:13;;;;;;;0.90;0.90;;;;;;;;;;4905541;28;21013;-59
2022/10/08 13:55:40;;;;;;;0.90;0.90;;;;;;;;;;4914126;28;20592;-59
2022/10/08 13:58:06;;;;;;;1.03;1.03;;;;;;;;;;4923505;28;20229;-60
2022/10/08 14:00:33;;;;;;;1.00;1.00;;;;;;;;;;4944706;28;20222;-60
2022/10/08 14:02:59;;;;;;;0.90;0.90;;;;;;;;;;4933777;28;20376;-59
2022/10/08 14:05:25;;;;;;;0.90;0.90;;;;;;;;;;4928257;28;21195;-59
2022/10/08 14:07:52;;;;;;;1.00;1.00;;;;;;;;;;4940255;28;20229;-59
2022/10/08 14:10:18;;;;;;;0.90;0.90;;;;;;;;;;4945644;28;20225;-59
2022/10/08 14:12:44;;;;;;;0.90;0.90;;;;;;;;;;4938688;28;20614;-59
2022/10/08 14:15:13;;;;;;;0.83;0.83;;;;;;;;;;4915554;28;20226;-59
2022/10/08 14:17:39;;;;;;;0.90;0.90;;;;;;;;;;4944477;28;20252;-59
2022/10/08 14:20:06;;;;;;;0.90;0.90;;;;;;;;;;4930423;28;20227;-60
2022/10/08 14:22:37;;;;;;;0.80;0.80;;;;;;;;;;4903400;28;20277;-60
2022/10/08 14:25:05;;;;;;;0.90;0.90;;;;;;;;;;4917173;28;20230;-59
2022/10/08 14:27:31;;;;;;;1.10;1.10;;;;;;;;;;4950810;28;20220;-58
2022/10/08 14:29:57;;;;;;;0.93;0.93;;;;;;;;;;4927077;28;20642;-59
2022/10/08 14:32:22;;;;;;;0.90;0.90;;;;;;;;;;4921964;28;20821;-59
2022/10/08 14:34:48;;;;;;;0.90;0.90;;;;;;;;;;4931037;28;20581;-59
2022/10/08 14:37:14;;;;;;;0.90;0.90;;;;;;;;;;4946736;28;20220;-59
2022/10/08 14:39:40;;;;;;;1.07;1.07;;;;;;;;;;4951961;28;20313;-58
2022/10/08 14:42:06;;;;;;;1.00;1.00;;;;;;;;;;4943257;28;20236;-59
2022/10/08 14:44:32;;;;;;;0.90;0.90;;;;;;;;;;4948917;28;20235;-59
2022/10/08 14:46:58;;;;;;;0.80;0.80;;;;;;;;;;4950945;28;20238;-59
2022/10/08 14:49:24;;;;;;;1.10;1.10;;;;;;;;;;4943685;28;20250;-59
2022/10/08 14:51:50;;;;;;;1.00;1.00;;;;;;;;;;4945907;28;20236;-59
2022/10/08 14:54:17;;;;;;;0.80;0.80;;;;;;;;;;4930717;28;20506;-59
2022/10/08 14:56:43;;;;;;;1.00;1.00;;;;;;;;;;4940199;28;20580;-59
2022/10/08 14:59:09;;;;;;;1.10;1.10;;;;;;;;;;4948673;28;20313;-59
2022/10/08 15:01:35;;;;;;;0.80;0.80;;;;;;;;;;4946668;28;20234;-59
2022/10/08 15:04:01;;;;;;;0.90;0.90;;;;;;;;;;4940315;28;20237;-58
2022/10/08 15:06:27;;;;;;;1.00;1.00;;;;;;;;;;4919830;28;20839;-59